createdAt,value
2017-12-23T00:01:26.370Z,83.02
2017-12-23T00:03:53.974Z,83.05
2017-12-23T00:06:21.635Z,83.09
2017-12-23T00:08:49.247Z,83.33
2017-12-23T00:11:16.907Z,83.87
2017-12-23T00:13:44.510Z,84.03
2017-12-23T00:16:12.119Z,84.10
2017-12-23T00:18:39.698Z,84.07
2017-12-23T00:21:07.380Z,84.40
2017-12-23T00:23:35.051Z,84.69
2017-12-23T00:26:02.715Z,84.91
2017-12-23T00:28:30.321Z,85.06
2017-12-23T00:30:57.995Z,85.84
2017-12-23T00:33:25.607Z,86.63
2017-12-23T00:35:53.210Z,86.64
2017-12-23T00:38:20.823Z,86.64
2017-12-23T00:40:48.484Z,86.36
2017-12-23T00:43:16.086Z,86.28
2017-12-23T00:45:43.759Z,86.33
2017-12-23T00:48:11.358Z,86.31
2017-12-23T00:50:38.966Z,86.32
2017-12-23T00:53:06.578Z,86.50
2017-12-23T00:55:34.182Z,86.46
2017-12-23T00:58:01.785Z,86.72
2017-12-23T01:00:29.463Z,86.77
2017-12-23T01:02:57.143Z,86.97
2017-12-23T01:05:24.754Z,86.89
2017-12-23T01:07:52.422Z,87.02
2017-12-23T01:10:20.027Z,87.39
2017-12-23T01:12:47.635Z,87.14
2017-12-23T01:15:15.250Z,87.08
2017-12-23T01:17:42.858Z,87.02
2017-12-23T01:20:10.470Z,86.92
2017-12-23T01:22:38.095Z,86.98
2017-12-23T01:25:05.706Z,87.03
2017-12-23T01:27:33.306Z,86.90
2017-12-23T01:30:00.979Z,86.89
2017-12-23T01:32:28.582Z,87.23
2017-12-23T01:34:56.190Z,87.32
2017-12-23T01:37:23.867Z,87.37
2017-12-23T01:39:51.466Z,87.44
2017-12-23T01:42:19.070Z,87.38
2017-12-23T01:44:46.683Z,87.58
2017-12-23T01:47:14.286Z,87.82
2017-12-23T01:49:41.894Z,87.83
2017-12-23T01:52:09.510Z,87.55
2017-12-23T01:54:37.114Z,87.55
2017-12-23T01:57:04.713Z,87.70
2017-12-23T01:59:32.334Z,87.87
2017-12-23T02:01:59.945Z,87.98
2017-12-23T02:04:27.551Z,88.33
2017-12-23T02:06:55.167Z,88.34
2017-12-23T02:09:22.838Z,88.02
2017-12-23T02:11:50.441Z,87.99
2017-12-23T02:14:18.054Z,88.00
2017-12-23T02:16:45.654Z,87.73
2017-12-23T02:19:13.261Z,87.77
2017-12-23T02:21:40.868Z,87.77
2017-12-23T02:24:08.527Z,88.15
2017-12-23T02:26:36.133Z,88.13
2017-12-23T02:29:03.806Z,87.90
2017-12-23T02:31:31.472Z,87.73
2017-12-23T02:33:59.078Z,87.85
2017-12-23T02:36:26.695Z,88.07
2017-12-23T02:38:54.303Z,88.16
2017-12-23T02:41:21.906Z,88.15
2017-12-23T02:43:49.587Z,88.28
2017-12-23T02:46:17.199Z,88.50
2017-12-23T02:48:44.859Z,88.40
2017-12-23T02:51:12.535Z,88.36
2017-12-23T02:53:40.149Z,88.60
2017-12-23T02:56:07.758Z,88.42
2017-12-23T02:58:35.430Z,88.29
2017-12-23T03:01:03.041Z,88.51
2017-12-23T03:03:30.641Z,88.96
2017-12-23T03:05:58.323Z,88.91
2017-12-23T03:08:25.930Z,88.68
2017-12-23T03:10:53.531Z,88.63
2017-12-23T03:13:21.199Z,88.80
2017-12-23T03:15:48.806Z,88.67
2017-12-23T03:18:16.410Z,88.84
2017-12-23T03:20:44.122Z,88.99
2017-12-23T03:23:11.780Z,88.95
2017-12-23T03:25:39.385Z,88.90
2017-12-23T03:28:07.041Z,89.15
2017-12-23T03:30:34.676Z,89.03
2017-12-23T03:33:02.278Z,88.95
2017-12-23T03:35:29.936Z,89.12
2017-12-23T03:37:57.545Z,89.14
2017-12-23T03:40:25.144Z,89.33
2017-12-23T03:42:52.798Z,89.32
2017-12-23T03:45:20.455Z,89.24
2017-12-23T03:47:48.055Z,89.13
2017-12-23T03:50:15.685Z,89.16
2017-12-23T03:52:43.294Z,89.20
2017-12-23T03:55:10.950Z,89.32
2017-12-23T03:57:38.630Z,89.59
2017-12-23T04:00:06.234Z,89.96
2017-12-23T04:02:33.896Z,90.20
2017-12-23T04:05:01.554Z,90.31
2017-12-23T04:07:29.215Z,90.46
2017-12-23T04:09:56.818Z,90.65
2017-12-23T04:12:24.479Z,90.79
2017-12-23T04:14:52.085Z,90.42
2017-12-23T04:17:19.681Z,89.95
2017-12-23T04:19:47.339Z,89.40
2017-12-23T04:22:14.956Z,89.65
2017-12-23T04:24:42.620Z,89.79
2017-12-23T04:27:10.339Z,89.80
2017-12-23T04:29:38.035Z,89.42
2017-12-23T04:32:05.642Z,89.09
2017-12-23T04:34:33.356Z,89.13
2017-12-23T04:37:01.017Z,89.15
2017-12-23T04:39:28.617Z,88.90
2017-12-23T04:41:56.322Z,88.69
2017-12-23T04:44:23.983Z,88.67
2017-12-23T04:46:51.589Z,88.40
2017-12-23T04:49:19.239Z,88.33
2017-12-23T04:51:46.898Z,88.24
2017-12-23T04:54:14.502Z,87.84
2017-12-23T04:56:42.218Z,87.71
2017-12-23T04:59:09.818Z,87.65
2017-12-23T05:01:37.479Z,87.14
2017-12-23T05:04:05.187Z,86.78
2017-12-23T05:06:32.847Z,86.46
2017-12-23T05:09:00.447Z,86.12
2017-12-23T05:11:28.107Z,85.89
2017-12-23T05:13:55.727Z,85.43
2017-12-23T05:16:23.330Z,85.02
2017-12-23T05:18:50.977Z,84.68
2017-12-23T05:21:18.575Z,84.51
2017-12-23T05:23:46.183Z,84.34
2017-12-23T05:26:13.842Z,83.83
2017-12-23T05:28:41.506Z,83.71
2017-12-23T05:31:09.219Z,84.30
2017-12-23T05:33:36.874Z,84.01
2017-12-23T05:36:04.490Z,83.40
2017-12-23T05:38:32.091Z,83.17
2017-12-23T05:40:59.751Z,82.86
2017-12-23T05:43:27.421Z,82.47
2017-12-23T05:45:55.023Z,82.19
2017-12-23T05:48:22.739Z,81.75
2017-12-23T05:50:50.346Z,81.68
2017-12-23T05:53:17.947Z,81.60
2017-12-23T05:55:45.658Z,81.53
2017-12-23T05:58:13.315Z,81.57
2017-12-23T06:00:40.931Z,81.56
2017-12-23T06:03:08.647Z,81.80
2017-12-23T06:05:36.255Z,81.62
2017-12-23T06:08:03.851Z,81.49
2017-12-23T06:10:31.502Z,81.51
2017-12-23T06:12:59.110Z,81.76
2017-12-23T06:15:26.763Z,81.80
2017-12-23T06:17:54.423Z,81.71
2017-12-23T06:20:22.079Z,81.71
2017-12-23T06:22:49.684Z,81.72
2017-12-23T06:25:17.335Z,81.72
2017-12-23T06:27:44.995Z,81.93
2017-12-23T06:30:12.660Z,81.99
2017-12-23T06:32:40.379Z,82.06
2017-12-23T06:35:07.987Z,81.92
2017-12-23T06:37:35.598Z,81.85
2017-12-23T06:40:03.255Z,81.81
2017-12-23T06:42:30.915Z,81.89
2017-12-23T06:44:58.510Z,81.73
2017-12-23T06:47:26.231Z,81.64
2017-12-23T06:49:53.860Z,81.50
2017-12-23T06:52:22.154Z,81.19
2017-12-23T06:54:49.774Z,81.06
2017-12-23T06:57:17.374Z,80.77
2017-12-23T06:59:44.978Z,80.84
2017-12-23T07:02:12.586Z,80.82
2017-12-23T07:04:40.248Z,80.89
2017-12-23T07:07:07.853Z,80.89
2017-12-23T07:09:35.582Z,80.80
2017-12-23T07:12:03.243Z,80.88
2017-12-23T07:14:30.875Z,80.86
2017-12-23T07:16:58.534Z,80.70
2017-12-23T07:19:26.142Z,80.55
2017-12-23T07:21:53.747Z,80.33
2017-12-23T07:24:21.465Z,80.00
2017-12-23T07:26:49.119Z,80.03
2017-12-23T07:29:16.714Z,80.13
2017-12-23T07:31:44.362Z,80.16
2017-12-23T07:34:11.969Z,80.03
2017-12-23T07:36:39.566Z,79.83
2017-12-23T07:39:07.259Z,79.63
2017-12-23T07:41:34.867Z,79.29
2017-12-23T07:44:02.475Z,79.43
2017-12-23T07:46:30.136Z,79.33
2017-12-23T07:48:57.745Z,79.26
2017-12-23T07:51:25.404Z,79.41
2017-12-23T07:53:53.071Z,79.29
2017-12-23T07:56:20.667Z,78.83
2017-12-23T07:58:48.410Z,78.90
2017-12-23T08:01:16.147Z,79.02
2017-12-23T08:03:43.803Z,79.12
2017-12-23T08:06:11.403Z,79.70
2017-12-23T08:08:39.052Z,79.33
2017-12-23T08:11:06.710Z,78.52
2017-12-23T08:13:34.309Z,77.44
2017-12-23T08:16:01.911Z,77.57
2017-12-23T08:18:29.506Z,79.65
2017-12-23T08:20:57.142Z,78.41
2017-12-23T08:23:24.858Z,76.89
2017-12-23T08:25:52.521Z,76.80
2017-12-23T08:28:20.182Z,76.87
2017-12-23T08:30:47.870Z,76.81
2017-12-23T08:33:15.507Z,76.63
2017-12-23T08:35:43.171Z,76.85
2017-12-23T08:38:10.842Z,76.77
2017-12-23T08:40:38.518Z,76.47
2017-12-23T08:43:06.122Z,76.23
2017-12-23T08:45:33.839Z,76.73
2017-12-23T08:48:01.446Z,76.70
2017-12-23T08:50:29.108Z,76.59
2017-12-23T08:52:56.766Z,76.35
2017-12-23T08:55:24.378Z,76.32
2017-12-23T08:57:51.975Z,75.79
2017-12-23T09:00:19.637Z,76.12
2017-12-23T09:02:47.389Z,75.95
2017-12-23T09:05:14.998Z,76.19
2017-12-23T09:07:42.740Z,76.19
2017-12-23T09:10:10.374Z,77.24
2017-12-23T09:12:38.032Z,77.34
2017-12-23T09:15:05.746Z,77.17
2017-12-23T09:17:33.421Z,76.12
2017-12-23T09:20:01.062Z,75.28
2017-12-23T09:22:28.802Z,75.04
2017-12-23T09:24:56.398Z,74.61
2017-12-23T09:27:23.991Z,74.68
2017-12-23T09:29:51.647Z,74.37
2017-12-23T09:32:19.254Z,74.35
2017-12-23T09:34:46.862Z,73.53
2017-12-23T09:37:14.574Z,73.23
2017-12-23T09:39:42.243Z,72.90
2017-12-23T09:42:09.898Z,73.41
2017-12-23T09:44:37.614Z,73.41
2017-12-23T09:47:05.210Z,71.70
2017-12-23T09:49:32.808Z,70.92
2017-12-23T09:52:00.454Z,68.15
2017-12-23T09:54:28.113Z,67.86
2017-12-23T09:56:55.771Z,67.26
2017-12-23T09:59:23.515Z,66.32
2017-12-23T10:01:51.173Z,65.76
2017-12-23T10:04:18.769Z,64.58
2017-12-23T10:06:46.419Z,63.74
2017-12-23T10:09:14.080Z,62.71
2017-12-23T10:11:41.682Z,61.56
2017-12-23T10:14:09.390Z,62.25
2017-12-23T10:16:37.041Z,62.14
2017-12-23T10:19:04.642Z,62.88
2017-12-23T10:21:32.322Z,63.89
2017-12-23T10:23:59.926Z,63.84
2017-12-23T10:26:27.526Z,63.91
2017-12-23T10:28:55.271Z,63.78
2017-12-23T10:31:22.866Z,62.01
2017-12-23T10:33:50.466Z,60.93
2017-12-23T10:36:18.118Z,59.77
2017-12-23T10:38:45.721Z,58.79
2017-12-23T10:41:13.353Z,58.01
2017-12-23T10:43:41.067Z,58.46
2017-12-23T10:46:08.731Z,57.63
2017-12-23T10:48:36.326Z,57.36
2017-12-23T10:51:04.031Z,56.72
2017-12-23T10:53:31.690Z,57.50
2017-12-23T10:55:59.350Z,57.16
2017-12-23T10:58:27.014Z,58.89
2017-12-23T11:00:54.678Z,60.02
2017-12-23T11:03:22.339Z,60.89
2017-12-23T11:05:49.999Z,59.74
2017-12-23T11:08:17.703Z,57.92
2017-12-23T11:10:45.307Z,55.24
2017-12-23T11:13:13.027Z,55.49
2017-12-23T11:15:40.630Z,54.56
2017-12-23T11:18:08.235Z,56.27
2017-12-23T11:20:35.886Z,57.04
2017-12-23T11:23:03.551Z,58.75
2017-12-23T11:25:31.214Z,58.69
2017-12-23T11:27:58.862Z,59.11
2017-12-23T11:30:26.455Z,60.47
2017-12-23T11:32:54.119Z,62.51
2017-12-23T11:35:21.774Z,63.85
2017-12-23T11:37:49.375Z,65.07
2017-12-23T11:40:16.975Z,65.11
2017-12-23T11:42:44.719Z,62.39
2017-12-23T11:45:12.338Z,58.98
2017-12-23T11:47:39.931Z,57.08
2017-12-23T11:50:07.586Z,56.11
2017-12-23T11:52:35.210Z,55.72
2017-12-23T11:55:02.876Z,56.88
2017-12-23T11:57:30.552Z,59.27
2017-12-23T11:59:58.171Z,60.73
2017-12-23T12:02:25.860Z,61.00
2017-12-23T12:04:53.574Z,61.97
2017-12-23T12:07:21.232Z,63.45
2017-12-23T12:09:48.905Z,63.93
2017-12-23T12:12:16.567Z,64.49
2017-12-23T12:14:44.232Z,64.97
2017-12-23T12:17:11.891Z,64.78
2017-12-23T12:19:39.552Z,65.08
2017-12-23T12:22:07.158Z,65.93
2017-12-23T12:24:34.814Z,66.86
2017-12-23T12:27:02.467Z,67.23
2017-12-23T12:29:30.067Z,67.33
2017-12-23T12:31:57.670Z,67.53
2017-12-23T12:34:25.388Z,67.54
2017-12-23T12:36:53.043Z,67.78
2017-12-23T12:39:20.702Z,67.99
2017-12-23T12:41:49.242Z,68.29
2017-12-23T12:44:16.914Z,68.08
2017-12-23T12:46:44.552Z,68.11
2017-12-23T12:49:12.168Z,67.02
2017-12-23T12:51:39.876Z,67.08
2017-12-23T12:54:07.478Z,66.26
2017-12-23T12:56:35.096Z,66.07
2017-12-23T12:59:02.699Z,66.02
2017-12-23T13:01:30.303Z,64.49
2017-12-23T13:03:57.910Z,64.10
2017-12-23T13:06:25.511Z,63.37
2017-12-23T13:08:53.116Z,64.20
2017-12-23T13:11:20.726Z,64.61
2017-12-23T13:13:48.326Z,64.74
2017-12-23T13:16:15.985Z,65.44
2017-12-23T13:18:43.644Z,65.56
2017-12-23T13:21:11.312Z,66.64
2017-12-23T13:23:38.910Z,65.97
2017-12-23T13:26:06.560Z,66.53
2017-12-23T13:28:34.159Z,66.75
2017-12-23T13:31:01.755Z,67.03
2017-12-23T13:33:29.413Z,66.52
2017-12-23T13:35:57.018Z,66.88
2017-12-23T13:38:24.622Z,67.02
2017-12-23T13:40:52.295Z,65.74
2017-12-23T13:43:19.955Z,65.44
2017-12-23T13:45:47.558Z,65.61
2017-12-23T13:48:15.227Z,65.88
2017-12-23T13:50:42.840Z,66.38
2017-12-23T13:53:10.446Z,67.25
2017-12-23T13:55:38.172Z,68.04
2017-12-23T13:58:05.770Z,68.62
2017-12-23T14:00:33.367Z,68.73
2017-12-23T14:03:01.019Z,68.94
2017-12-23T14:05:28.618Z,69.58
2017-12-23T14:07:56.219Z,69.86
2017-12-23T14:10:23.947Z,70.04
2017-12-23T14:12:51.616Z,69.53
2017-12-23T14:15:19.275Z,70.12
2017-12-23T14:17:46.923Z,69.97
2017-12-23T14:20:14.523Z,69.81
2017-12-23T14:22:42.123Z,69.65
2017-12-23T14:25:09.831Z,69.38
2017-12-23T14:27:37.434Z,69.90
2017-12-23T14:30:05.110Z,70.48
2017-12-23T14:32:32.767Z,70.61
2017-12-23T14:35:00.362Z,70.69
2017-12-23T14:37:28.027Z,70.87
2017-12-23T14:39:55.747Z,70.93
2017-12-23T14:42:23.414Z,70.91
2017-12-23T14:44:51.075Z,70.94
2017-12-23T14:47:18.783Z,71.96
2017-12-23T14:49:46.450Z,72.37
2017-12-23T14:52:14.163Z,73.01
2017-12-23T14:54:41.818Z,73.17
2017-12-23T14:57:09.423Z,73.72
2017-12-23T14:59:37.033Z,74.06
2017-12-23T15:02:04.771Z,74.17
2017-12-23T15:04:32.374Z,74.85
2017-12-23T15:06:59.973Z,74.62
2017-12-23T15:09:27.691Z,74.88
2017-12-23T15:11:55.298Z,75.12
2017-12-23T15:14:22.894Z,75.07
2017-12-23T15:16:50.635Z,75.21
2017-12-23T15:19:18.233Z,75.19
2017-12-23T15:21:45.894Z,75.55
2017-12-23T15:24:13.542Z,75.79
2017-12-23T15:26:41.144Z,76.03
2017-12-23T15:29:08.816Z,76.20
2017-12-23T15:31:36.526Z,76.66
2017-12-23T15:34:04.131Z,77.55
2017-12-23T15:36:31.730Z,78.00
2017-12-23T15:38:59.394Z,78.23
2017-12-23T15:41:26.999Z,78.50
2017-12-23T15:43:54.598Z,78.79
2017-12-23T15:46:22.315Z,78.78
2017-12-23T15:48:49.923Z,78.93
2017-12-23T15:51:17.531Z,79.36
2017-12-23T15:53:45.266Z,79.83
2017-12-23T15:56:12.876Z,79.93
2017-12-23T15:58:40.486Z,79.84
2017-12-23T16:01:08.155Z,79.58
2017-12-23T16:03:35.836Z,79.85
2017-12-23T16:06:03.430Z,79.71
2017-12-23T16:08:31.150Z,79.58
2017-12-23T16:10:58.815Z,79.65
2017-12-23T16:13:26.411Z,79.70
2017-12-23T16:15:54.098Z,79.80
2017-12-23T16:18:21.759Z,79.79
2017-12-23T16:20:49.363Z,79.63
2017-12-23T16:23:17.103Z,79.57
2017-12-23T16:25:44.706Z,79.54
2017-12-23T16:28:12.362Z,79.64
2017-12-23T16:30:40.043Z,79.63
2017-12-23T16:33:07.646Z,79.57
2017-12-23T16:35:35.312Z,79.49
2017-12-23T16:38:02.980Z,79.60
2017-12-23T16:40:30.649Z,79.46
2017-12-23T16:42:58.307Z,79.31
2017-12-23T16:45:26.054Z,79.46
2017-12-23T16:47:53.713Z,79.27
2017-12-23T16:50:21.376Z,79.15
2017-12-23T16:52:49.031Z,78.85
2017-12-23T16:55:16.635Z,78.66
2017-12-23T16:57:44.290Z,78.36
2017-12-23T17:00:11.939Z,78.82
2017-12-23T17:02:39.660Z,78.95
2017-12-23T17:05:07.380Z,79.28
2017-12-23T17:07:35.096Z,79.44
2017-12-23T17:10:02.706Z,79.83
2017-12-23T17:12:30.368Z,79.92
2017-12-23T17:14:58.088Z,80.14
2017-12-23T17:17:25.747Z,80.44
2017-12-23T17:19:53.346Z,80.81
2017-12-23T17:22:20.998Z,80.92
2017-12-23T17:24:48.655Z,81.05
2017-12-23T17:27:16.256Z,81.49
2017-12-23T17:29:55.575Z,81.73
2017-12-23T17:32:23.178Z,81.89
2017-12-23T17:34:50.778Z,82.06
2017-12-23T17:37:18.391Z,82.29
2017-12-23T17:39:45.995Z,82.20
2017-12-23T17:42:13.655Z,82.08
2017-12-23T17:44:41.314Z,82.17
2017-12-23T17:47:08.974Z,82.39
2017-12-23T17:49:36.578Z,82.48
2017-12-23T17:52:04.183Z,82.85
2017-12-23T17:54:31.850Z,82.92
2017-12-23T17:56:59.455Z,82.89
2017-12-23T17:59:27.053Z,83.08
2017-12-23T18:01:54.720Z,83.12
2017-12-23T18:04:22.295Z,83.29
2017-12-23T18:06:50.443Z,83.16
2017-12-23T18:09:18.047Z,83.06
2017-12-23T18:11:45.659Z,82.90
2017-12-23T18:14:13.271Z,83.01
2017-12-23T18:16:40.954Z,82.97
2017-12-23T18:19:08.671Z,82.83
2017-12-23T18:21:36.268Z,83.15
2017-12-23T18:24:03.931Z,83.01
2017-12-23T18:26:31.534Z,83.01
2017-12-23T18:28:59.135Z,82.87
2017-12-23T18:31:26.803Z,82.92
2017-12-23T18:33:54.459Z,82.69
2017-12-23T18:36:22.064Z,82.65
2017-12-23T18:38:49.734Z,82.66
2017-12-23T18:41:17.341Z,82.63
2017-12-23T18:43:45.064Z,82.45
2017-12-23T18:46:12.679Z,82.51
2017-12-23T18:48:40.363Z,82.22
2017-12-23T18:51:07.978Z,82.56
2017-12-23T18:53:35.583Z,82.59
2017-12-23T18:56:03.305Z,82.77
2017-12-23T18:58:30.924Z,82.58
2017-12-23T19:00:58.567Z,82.31
2017-12-23T19:03:26.236Z,82.75
2017-12-23T19:05:53.898Z,82.92
2017-12-23T19:08:21.547Z,82.95
2017-12-23T19:10:49.155Z,83.01
2017-12-23T19:13:16.819Z,83.19
2017-12-23T19:15:51.387Z,83.28
2017-12-23T19:18:18.987Z,83.54
2017-12-23T19:20:46.598Z,83.59
2017-12-23T19:23:14.255Z,83.47
2017-12-23T19:25:41.978Z,83.31
2017-12-23T19:28:09.783Z,83.23
2017-12-23T19:30:37.398Z,83.32
2017-12-23T19:33:05.015Z,83.62
2017-12-23T19:35:32.674Z,83.76
2017-12-23T19:38:00.350Z,83.84
2017-12-23T19:40:27.995Z,83.79
2017-12-23T19:42:55.706Z,83.83
2017-12-23T19:45:23.318Z,83.71
2017-12-23T19:47:50.978Z,83.86
2017-12-23T19:50:18.634Z,83.68
2017-12-23T19:52:46.239Z,83.97
2017-12-23T19:55:13.834Z,84.26
2017-12-23T19:57:41.502Z,84.30
2017-12-23T20:00:09.119Z,84.54
2017-12-23T20:02:36.835Z,84.73
2017-12-23T20:05:04.490Z,84.83
2017-12-23T20:07:32.091Z,84.99
2017-12-23T20:09:59.703Z,84.75
2017-12-23T20:12:27.302Z,84.82
2017-12-23T20:14:55.047Z,84.77
2017-12-23T20:17:22.674Z,84.90
2017-12-23T20:19:50.277Z,84.92
2017-12-23T20:22:17.899Z,85.10
2017-12-23T20:24:45.561Z,85.02
2017-12-23T20:27:13.304Z,84.77
2017-12-23T20:29:40.902Z,85.01
2017-12-23T20:32:08.537Z,85.17
2017-12-23T20:34:36.146Z,85.03
2017-12-23T20:37:03.746Z,85.19
2017-12-23T20:39:31.399Z,85.49
2017-12-23T20:41:59.054Z,85.53
2017-12-23T20:44:26.712Z,85.49
2017-12-23T20:46:54.383Z,85.26
2017-12-23T20:49:22.046Z,85.13
2017-12-23T20:51:49.699Z,85.04
2017-12-23T20:54:17.299Z,85.15
2017-12-23T20:56:44.903Z,85.15
2017-12-23T20:59:12.570Z,85.29
2017-12-23T21:01:40.231Z,85.14
2017-12-23T21:04:07.900Z,85.16
2017-12-23T21:06:35.558Z,85.26
2017-12-23T21:09:03.290Z,85.55
2017-12-23T21:11:30.956Z,85.10
2017-12-23T21:13:58.559Z,85.20
2017-12-23T21:16:26.240Z,85.05
2017-12-23T21:18:53.894Z,85.09
2017-12-23T21:21:21.552Z,85.19
2017-12-23T21:23:49.226Z,85.51
2017-12-23T21:26:16.823Z,85.35
2017-12-23T21:28:44.469Z,85.40
2017-12-23T21:31:12.063Z,85.15
2017-12-23T21:33:39.722Z,84.84
2017-12-23T21:36:07.391Z,84.80
2017-12-23T21:38:35.051Z,84.79
2017-12-23T21:41:02.702Z,84.87
2017-12-23T21:43:30.302Z,84.78
2017-12-23T21:45:57.902Z,84.50
2017-12-23T21:48:25.522Z,84.31
2017-12-23T21:50:53.202Z,84.40
2017-12-23T21:53:20.858Z,84.33
2017-12-23T21:55:48.455Z,84.19
2017-12-23T21:58:16.119Z,84.22
2017-12-23T22:00:43.731Z,84.16
2017-12-23T22:03:11.330Z,84.31
2017-12-23T22:05:38.991Z,84.37
2017-12-23T22:08:06.599Z,84.29
2017-12-23T22:10:34.200Z,83.75
2017-12-23T22:13:01.868Z,83.48
2017-12-23T22:15:29.468Z,83.56
2017-12-23T22:17:57.182Z,83.76
2017-12-23T22:20:24.786Z,83.83
2017-12-23T22:22:52.385Z,83.87
2017-12-23T22:25:19.995Z,83.95
2017-12-23T22:27:47.654Z,83.83
2017-12-23T22:30:15.375Z,83.87
2017-12-23T22:32:42.978Z,83.65
2017-12-23T22:35:10.643Z,83.42
2017-12-23T22:37:38.340Z,83.26
2017-12-23T22:40:05.946Z,83.60
2017-12-23T22:42:34.602Z,83.88
2017-12-23T22:45:02.263Z,83.76
2017-12-23T22:47:29.858Z,83.62
2017-12-23T22:49:57.476Z,83.82
2017-12-23T22:52:25.166Z,84.04
2017-12-23T22:54:52.879Z,84.17
2017-12-23T22:57:20.479Z,84.00
2017-12-23T22:59:48.144Z,84.03
2017-12-23T23:02:15.814Z,84.05
2017-12-23T23:04:43.418Z,84.02
2017-12-23T23:07:11.131Z,84.01
2017-12-23T23:09:38.730Z,84.07
2017-12-23T23:12:06.330Z,84.07
2017-12-23T23:14:33.939Z,84.11
2017-12-23T23:17:01.534Z,83.73
2017-12-23T23:19:29.194Z,83.71
2017-12-23T23:21:56.794Z,83.81
2017-12-23T23:24:24.452Z,83.77
2017-12-23T23:26:52.059Z,83.95
2017-12-23T23:29:19.723Z,83.79
2017-12-23T23:31:47.378Z,83.85
2017-12-23T23:34:14.982Z,84.13
2017-12-23T23:36:42.581Z,83.93
2017-12-23T23:39:10.251Z,83.94
2017-12-23T23:41:37.850Z,84.25
2017-12-23T23:44:05.567Z,84.15
2017-12-23T23:46:33.178Z,83.94
2017-12-23T23:49:00.783Z,83.89
2017-12-23T23:51:28.390Z,83.66
2017-12-23T23:53:56.048Z,83.84
2017-12-23T23:56:23.687Z,84.17
2017-12-23T23:58:51.338Z,84.34
